Terminal Aerodrome Forecast
Issued by NWS

Home | Current Version | Previous Version | Text Only | Print | Product List | Glossary On
Versions: 1 2 3 4 5 6 7 8 9 10 11 12 13 14 15 16 17 18 19 20 21 22 23 24 25
802
FTUS42 KJAX 111800 AAA
TAFVQQ
TAF AMD
KVQQ 111800Z 1118/1218 26007KT P6SM SKC
     FM112300 22004KT P6SM SKC
     FM121500 23011G20KT P6SM FEW030 SCT250
      AMD NOT SKED=

USA.gov is the U.S. government's official web portal to all federal, state and local government web resources and services.